sensor_id;sensor_type;location;lat;lon;timestamp;P1;durP1;ratioP1;P2;durP2;ratioP2
47635;SDS011;33364;50.766;15.338;2022-10-31T00:01:34;8.57;;;3.00;;
47635;SDS011;33364;50.766;15.338;2022-10-31T00:04:01;9.63;;;2.97;;
47635;SDS011;33364;50.766;15.338;2022-10-31T00:06:28;12.98;;;3.20;;
47635;SDS011;33364;50.766;15.338;2022-10-31T00:08:55;9.65;;;2.92;;
47635;SDS011;33364;50.766;15.338;2022-10-31T00:11:23;10.60;;;3.00;;
47635;SDS011;33364;50.766;15.338;2022-10-31T00:13:49;8.88;;;2.70;;
47635;SDS011;33364;50.766;15.338;2022-10-31T00:16:19;12.40;;;4.38;;
47635;SDS011;33364;50.766;15.338;2022-10-31T00:18:50;20.05;;;4.57;;
47635;SDS011;33364;50.766;15.338;2022-10-31T00:21:16;11.93;;;2.70;;
47635;SDS011;33364;50.766;15.338;2022-10-31T00:23:42;13.30;;;3.20;;
47635;SDS011;33364;50.766;15.338;2022-10-31T00:26:07;12.98;;;2.67;;
47635;SDS011;33364;50.766;15.338;2022-10-31T00:28:33;14.32;;;3.33;;
47635;SDS011;33364;50.766;15.338;2022-10-31T00:31:08;12.75;;;3.05;;
47635;SDS011;33364;50.766;15.338;2022-10-31T00:33:36;13.30;;;3.03;;
47635;SDS011;33364;50.766;15.338;2022-10-31T00:36:03;12.40;;;4.38;;
47635;SDS011;33364;50.766;15.338;2022-10-31T00:38:30;12.98;;;2.85;;
47635;SDS011;33364;50.766;15.338;2022-10-31T00:40:56;16.08;;;3.45;;
47635;SDS011;33364;50.766;15.338;2022-10-31T00:43:22;11.02;;;3.45;;
47635;SDS011;33364;50.766;15.338;2022-10-31T00:45:48;16.77;;;3.40;;
47635;SDS011;33364;50.766;15.338;2022-10-31T00:48:13;8.55;;;2.78;;
47635;SDS011;33364;50.766;15.338;2022-10-31T00:50:39;11.68;;;3.20;;
47635;SDS011;33364;50.766;15.338;2022-10-31T00:53:05;9.18;;;3.10;;
47635;SDS011;33364;50.766;15.338;2022-10-31T00:55:31;11.50;;;3.40;;
47635;SDS011;33364;50.766;15.338;2022-10-31T00:57:57;10.98;;;4.00;;
47635;SDS011;33364;50.766;15.338;2022-10-31T01:00:23;7.40;;;3.35;;
47635;SDS011;33364;50.766;15.338;2022-10-31T01:02:48;11.35;;;2.78;;
47635;SDS011;33364;50.766;15.338;2022-10-31T01:05:14;12.95;;;2.95;;
47635;SDS011;33364;50.766;15.338;2022-10-31T01:07:40;18.50;;;3.95;;
47635;SDS011;33364;50.766;15.338;2022-10-31T01:10:06;9.75;;;3.10;;
47635;SDS011;33364;50.766;15.338;2022-10-31T01:12:37;12.57;;;3.00;;
47635;SDS011;33364;50.766;15.338;2022-10-31T01:15:04;10.88;;;3.60;;
47635;SDS011;33364;50.766;15.338;2022-10-31T01:17:30;12.43;;;3.17;;
47635;SDS011;33364;50.766;15.338;2022-10-31T01:19:56;13.20;;;3.40;;
47635;SDS011;33364;50.766;15.338;2022-10-31T01:22:21;8.25;;;2.97;;
47635;SDS011;33364;50.766;15.338;2022-10-31T01:24:47;12.50;;;3.55;;
47635;SDS011;33364;50.766;15.338;2022-10-31T01:27:12;9.50;;;2.60;;
47635;SDS011;33364;50.766;15.338;2022-10-31T01:29:38;17.33;;;3.60;;
47635;SDS011;33364;50.766;15.338;2022-10-31T01:32:04;8.73;;;2.67;;
47635;SDS011;33364;50.766;15.338;2022-10-31T01:34:30;12.75;;;2.75;;
47635;SDS011;33364;50.766;15.338;2022-10-31T01:36:55;9.65;;;3.28;;
47635;SDS011;33364;50.766;15.338;2022-10-31T01:39:21;10.95;;;2.60;;
47635;SDS011;33364;50.766;15.338;2022-10-31T01:41:48;10.90;;;3.88;;
47635;SDS011;33364;50.766;15.338;2022-10-31T01:46:43;11.15;;;2.42;;
47635;SDS011;33364;50.766;15.338;2022-10-31T01:49:13;8.93;;;2.70;;
47635;SDS011;33364;50.766;15.338;2022-10-31T01:51:51;12.80;;;3.67;;
47635;SDS011;33364;50.766;15.338;2022-10-31T01:54:22;8.45;;;2.60;;
47635;SDS011;33364;50.766;15.338;2022-10-31T01:56:53;7.70;;;3.13;;
47635;SDS011;33364;50.766;15.338;2022-10-31T01:59:21;7.07;;;3.08;;
47635;SDS011;33364;50.766;15.338;2022-10-31T02:01:50;18.63;;;4.07;;
47635;SDS011;33364;50.766;15.338;2022-10-31T02:04:17;18.48;;;3.85;;
47635;SDS011;33364;50.766;15.338;2022-10-31T02:06:58;10.43;;;3.35;;
47635;SDS011;33364;50.766;15.338;2022-10-31T02:09:28;11.30;;;2.85;;
47635;SDS011;33364;50.766;15.338;2022-10-31T02:11:57;8.05;;;2.58;;
47635;SDS011;33364;50.766;15.338;2022-10-31T02:14:25;7.93;;;3.22;;
47635;SDS011;33364;50.766;15.338;2022-10-31T02:16:53;11.07;;;3.00;;
47635;SDS011;33364;50.766;15.338;2022-10-31T02:22:14;13.02;;;4.20;;
47635;SDS011;33364;50.766;15.338;2022-10-31T02:37:46;9.80;;;2.80;;
47635;SDS011;33364;50.766;15.338;2022-10-31T02:40:21;8.23;;;2.83;;
47635;SDS011;33364;50.766;15.338;2022-10-31T02:43:04;15.63;;;3.13;;
47635;SDS011;33364;50.766;15.338;2022-10-31T02:45:45;12.32;;;2.80;;
47635;SDS011;33364;50.766;15.338;2022-10-31T02:48:27;9.40;;;2.15;;
47635;SDS011;33364;50.766;15.338;2022-10-31T02:50:57;14.25;;;2.40;;
47635;SDS011;33364;50.766;15.338;2022-10-31T02:53:26;13.73;;;3.72;;
47635;SDS011;33364;50.766;15.338;2022-10-31T02:55:56;6.03;;;2.25;;
47635;SDS011;33364;50.766;15.338;2022-10-31T02:58:24;11.35;;;2.60;;
47635;SDS011;33364;50.766;15.338;2022-10-31T03:03:57;5.50;;;2.58;;
47635;SDS011;33364;50.766;15.338;2022-10-31T03:06:45;7.47;;;3.10;;
47635;SDS011;33364;50.766;15.338;2022-10-31T03:09:27;6.47;;;2.38;;
47635;SDS011;33364;50.766;15.338;2022-10-31T03:12:59;4.60;;;2.00;;
47635;SDS011;33364;50.766;15.338;2022-10-31T03:15:22;9.50;;;2.47;;
47635;SDS011;33364;50.766;15.338;2022-10-31T03:20:20;10.38;;;2.50;;
47635;SDS011;33364;50.766;15.338;2022-10-31T03:22:50;5.70;;;2.55;;
47635;SDS011;33364;50.766;15.338;2022-10-31T03:25:17;8.70;;;2.13;;
47635;SDS011;33364;50.766;15.338;2022-10-31T03:27:43;11.40;;;3.03;;
47635;SDS011;33364;50.766;15.338;2022-10-31T03:30:10;6.88;;;2.60;;
47635;SDS011;33364;50.766;15.338;2022-10-31T03:32:55;7.82;;;2.30;;
47635;SDS011;33364;50.766;15.338;2022-10-31T03:35:24;7.75;;;2.88;;
47635;SDS011;33364;50.766;15.338;2022-10-31T03:37:52;5.18;;;2.78;;
47635;SDS011;33364;50.766;15.338;2022-10-31T03:40:20;6.32;;;1.88;;
47635;SDS011;33364;50.766;15.338;2022-10-31T03:42:53;9.10;;;2.78;;
47635;SDS011;33364;50.766;15.338;2022-10-31T03:45:24;8.35;;;2.60;;
47635;SDS011;33364;50.766;15.338;2022-10-31T03:47:53;7.65;;;2.25;;
47635;SDS011;33364;50.766;15.338;2022-10-31T03:50:20;9.20;;;2.55;;
47635;SDS011;33364;50.766;15.338;2022-10-31T03:52:54;6.53;;;2.20;;
47635;SDS011;33364;50.766;15.338;2022-10-31T03:55:25;4.85;;;1.88;;
47635;SDS011;33364;50.766;15.338;2022-10-31T03:57:54;10.27;;;2.67;;
47635;SDS011;33364;50.766;15.338;2022-10-31T04:00:43;6.97;;;2.60;;
47635;SDS011;33364;50.766;15.338;2022-10-31T04:03:11;4.10;;;2.05;;
47635;SDS011;33364;50.766;15.338;2022-10-31T04:05:42;7.55;;;3.00;;
47635;SDS011;33364;50.766;15.338;2022-10-31T04:08:12;6.97;;;2.58;;
47635;SDS011;33364;50.766;15.338;2022-10-31T04:10:43;5.88;;;2.20;;
47635;SDS011;33364;50.766;15.338;2022-10-31T04:13:13;5.05;;;2.03;;
47635;SDS011;33364;50.766;15.338;2022-10-31T04:15:42;4.43;;;2.05;;
47635;SDS011;33364;50.766;15.338;2022-10-31T04:18:09;6.82;;;2.25;;
47635;SDS011;33364;50.766;15.338;2022-10-31T04:20:40;13.50;;;2.65;;
47635;SDS011;33364;50.766;15.338;2022-10-31T04:23:18;4.43;;;1.95;;
47635;SDS011;33364;50.766;15.338;2022-10-31T04:25:45;9.63;;;2.65;;
47635;SDS011;33364;50.766;15.338;2022-10-31T04:28:11;7.25;;;3.08;;
47635;SDS011;33364;50.766;15.338;2022-10-31T04:30:37;6.07;;;2.33;;
47635;SDS011;33364;50.766;15.338;2022-10-31T04:33:02;5.97;;;2.58;;
47635;SDS011;33364;50.766;15.338;2022-10-31T04:35:28;6.53;;;2.40;;
47635;SDS011;33364;50.766;15.338;2022-10-31T04:37:53;5.45;;;1.92;;
47635;SDS011;33364;50.766;15.338;2022-10-31T04:40:19;10.82;;;3.08;;
47635;SDS011;33364;50.766;15.338;2022-10-31T04:42:44;5.68;;;2.42;;
47635;SDS011;33364;50.766;15.338;2022-10-31T04:45:10;7.53;;;2.30;;
47635;SDS011;33364;50.766;15.338;2022-10-31T04:47:35;3.33;;;1.90;;
47635;SDS011;33364;50.766;15.338;2022-10-31T04:50:02;6.63;;;2.25;;
47635;SDS011;33364;50.766;15.338;2022-10-31T04:52:28;6.97;;;1.80;;
47635;SDS011;33364;50.766;15.338;2022-10-31T04:54:53;6.32;;;2.15;;
47635;SDS011;33364;50.766;15.338;2022-10-31T04:57:19;9.35;;;2.75;;
47635;SDS011;33364;50.766;15.338;2022-10-31T04:59:44;4.90;;;2.38;;
47635;SDS011;33364;50.766;15.338;2022-10-31T05:02:10;6.10;;;3.03;;
47635;SDS011;33364;50.766;15.338;2022-10-31T05:04:36;8.48;;;1.92;;
47635;SDS011;33364;50.766;15.338;2022-10-31T05:07:01;5.63;;;2.33;;
47635;SDS011;33364;50.766;15.338;2022-10-31T05:09:27;4.07;;;2.05;;
47635;SDS011;33364;50.766;15.338;2022-10-31T05:11:52;8.07;;;2.63;;
47635;SDS011;33364;50.766;15.338;2022-10-31T05:14:18;9.15;;;3.58;;
47635;SDS011;33364;50.766;15.338;2022-10-31T05:16:43;5.43;;;2.50;;
47635;SDS011;33364;50.766;15.338;2022-10-31T05:19:09;9.02;;;2.28;;
47635;SDS011;33364;50.766;15.338;2022-10-31T05:21:34;6.70;;;2.05;;
47635;SDS011;33364;50.766;15.338;2022-10-31T05:24:00;6.93;;;2.30;;
47635;SDS011;33364;50.766;15.338;2022-10-31T05:26:26;8.05;;;2.30;;
47635;SDS011;33364;50.766;15.338;2022-10-31T05:28:51;8.15;;;2.25;;
47635;SDS011;33364;50.766;15.338;2022-10-31T05:31:17;5.03;;;2.30;;
47635;SDS011;33364;50.766;15.338;2022-10-31T05:33:42;5.85;;;2.50;;
47635;SDS011;33364;50.766;15.338;2022-10-31T05:36:09;9.30;;;3.10;;
47635;SDS011;33364;50.766;15.338;2022-10-31T05:38:34;12.32;;;4.28;;
47635;SDS011;33364;50.766;15.338;2022-10-31T05:41:00;10.38;;;3.50;;
47635;SDS011;33364;50.766;15.338;2022-10-31T05:43:26;8.30;;;3.00;;
47635;SDS011;33364;50.766;15.338;2022-10-31T05:45:53;4.35;;;2.10;;
47635;SDS011;33364;50.766;15.338;2022-10-31T05:48:19;5.80;;;2.42;;
47635;SDS011;33364;50.766;15.338;2022-10-31T05:50:44;6.57;;;3.42;;
47635;SDS011;33364;50.766;15.338;2022-10-31T05:53:10;5.85;;;2.40;;
47635;SDS011;33364;50.766;15.338;2022-10-31T05:55:35;7.05;;;2.58;;
47635;SDS011;33364;50.766;15.338;2022-10-31T05:58:01;11.10;;;2.85;;
47635;SDS011;33364;50.766;15.338;2022-10-31T06:00:27;9.25;;;2.75;;
47635;SDS011;33364;50.766;15.338;2022-10-31T06:02:59;5.72;;;2.38;;
47635;SDS011;33364;50.766;15.338;2022-10-31T06:05:27;5.10;;;2.40;;
47635;SDS011;33364;50.766;15.338;2022-10-31T06:07:52;12.48;;;2.33;;
47635;SDS011;33364;50.766;15.338;2022-10-31T06:10:18;8.68;;;2.72;;
47635;SDS011;33364;50.766;15.338;2022-10-31T06:12:46;5.22;;;2.20;;
47635;SDS011;33364;50.766;15.338;2022-10-31T06:15:12;7.57;;;2.53;;
47635;SDS011;33364;50.766;15.338;2022-10-31T06:17:37;6.03;;;2.70;;
47635;SDS011;33364;50.766;15.338;2022-10-31T06:20:04;6.82;;;2.42;;
47635;SDS011;33364;50.766;15.338;2022-10-31T06:22:30;6.90;;;2.58;;
47635;SDS011;33364;50.766;15.338;2022-10-31T06:24:56;10.88;;;3.30;;
47635;SDS011;33364;50.766;15.338;2022-10-31T06:27:21;4.50;;;2.65;;
47635;SDS011;33364;50.766;15.338;2022-10-31T06:29:47;3.70;;;2.47;;
47635;SDS011;33364;50.766;15.338;2022-10-31T06:32:12;6.97;;;2.25;;
47635;SDS011;33364;50.766;15.338;2022-10-31T06:34:39;10.30;;;2.83;;
47635;SDS011;33364;50.766;15.338;2022-10-31T06:37:08;6.38;;;2.85;;
47635;SDS011;33364;50.766;15.338;2022-10-31T06:39:35;8.10;;;2.25;;
47635;SDS011;33364;50.766;15.338;2022-10-31T06:42:00;13.40;;;3.03;;
47635;SDS011;33364;50.766;15.338;2022-10-31T06:44:27;9.23;;;2.90;;
47635;SDS011;33364;50.766;15.338;2022-10-31T06:47:11;11.60;;;3.28;;
47635;SDS011;33364;50.766;15.338;2022-10-31T06:49:37;7.55;;;3.15;;
47635;SDS011;33364;50.766;15.338;2022-10-31T06:52:02;7.93;;;3.20;;
47635;SDS011;33364;50.766;15.338;2022-10-31T06:54:28;9.02;;;2.92;;
47635;SDS011;33364;50.766;15.338;2022-10-31T06:56:53;10.35;;;3.13;;
47635;SDS011;33364;50.766;15.338;2022-10-31T06:59:19;10.30;;;4.00;;
47635;SDS011;33364;50.766;15.338;2022-10-31T07:01:44;12.95;;;3.78;;
47635;SDS011;33364;50.766;15.338;2022-10-31T07:04:10;12.13;;;3.35;;
47635;SDS011;33364;50.766;15.338;2022-10-31T07:06:36;9.32;;;3.67;;
47635;SDS011;33364;50.766;15.338;2022-10-31T07:09:02;9.02;;;4.70;;
47635;SDS011;33364;50.766;15.338;2022-10-31T07:11:28;10.57;;;4.60;;
47635;SDS011;33364;50.766;15.338;2022-10-31T07:13:53;11.18;;;4.00;;
47635;SDS011;33364;50.766;15.338;2022-10-31T07:16:19;16.92;;;6.28;;
47635;SDS011;33364;50.766;15.338;2022-10-31T07:18:44;11.65;;;5.70;;
47635;SDS011;33364;50.766;15.338;2022-10-31T07:21:10;15.10;;;7.25;;
47635;SDS011;33364;50.766;15.338;2022-10-31T07:23:36;12.95;;;6.18;;
47635;SDS011;33364;50.766;15.338;2022-10-31T07:26:01;16.08;;;6.95;;
47635;SDS011;33364;50.766;15.338;2022-10-31T07:28:27;29.33;;;12.25;;
47635;SDS011;33364;50.766;15.338;2022-10-31T07:30:53;17.23;;;7.70;;
47635;SDS011;33364;50.766;15.338;2022-10-31T07:33:20;19.67;;;8.57;;
47635;SDS011;33364;50.766;15.338;2022-10-31T07:35:47;11.52;;;6.35;;
47635;SDS011;33364;50.766;15.338;2022-10-31T07:38:13;17.95;;;8.90;;
47635;SDS011;33364;50.766;15.338;2022-10-31T07:40:39;14.40;;;7.20;;
47635;SDS011;33364;50.766;15.338;2022-10-31T07:43:06;16.27;;;7.93;;
47635;SDS011;33364;50.766;15.338;2022-10-31T07:45:32;18.52;;;9.38;;
47635;SDS011;33364;50.766;15.338;2022-10-31T07:47:58;18.38;;;9.10;;
47635;SDS011;33364;50.766;15.338;2022-10-31T07:50:27;28.02;;;15.00;;
47635;SDS011;33364;50.766;15.338;2022-10-31T07:53:05;20.13;;;11.13;;
47635;SDS011;33364;50.766;15.338;2022-10-31T07:55:32;9.18;;;4.65;;
47635;SDS011;33364;50.766;15.338;2022-10-31T07:58:02;8.32;;;3.78;;
47635;SDS011;33364;50.766;15.338;2022-10-31T08:00:30;13.30;;;4.13;;
47635;SDS011;33364;50.766;15.338;2022-10-31T08:03:04;10.70;;;4.18;;
47635;SDS011;33364;50.766;15.338;2022-10-31T08:05:32;8.23;;;3.53;;
47635;SDS011;33364;50.766;15.338;2022-10-31T08:07:58;11.45;;;3.90;;
47635;SDS011;33364;50.766;15.338;2022-10-31T08:10:23;8.57;;;4.80;;
47635;SDS011;33364;50.766;15.338;2022-10-31T08:12:57;25.60;;;13.45;;
47635;SDS011;33364;50.766;15.338;2022-10-31T08:15:27;16.50;;;8.88;;
47635;SDS011;33364;50.766;15.338;2022-10-31T08:17:53;11.43;;;3.92;;
47635;SDS011;33364;50.766;15.338;2022-10-31T08:20:19;7.53;;;3.35;;
47635;SDS011;33364;50.766;15.338;2022-10-31T08:22:55;8.90;;;3.25;;
47635;SDS011;33364;50.766;15.338;2022-10-31T08:25:25;15.48;;;5.57;;
47635;SDS011;33364;50.766;15.338;2022-10-31T08:27:53;10.73;;;5.38;;
47635;SDS011;33364;50.766;15.338;2022-10-31T08:30:20;12.25;;;5.20;;
47635;SDS011;33364;50.766;15.338;2022-10-31T08:32:47;21.83;;;10.98;;
47635;SDS011;33364;50.766;15.338;2022-10-31T08:35:21;13.68;;;5.28;;
47635;SDS011;33364;50.766;15.338;2022-10-31T08:37:51;5.72;;;2.78;;
47635;SDS011;33364;50.766;15.338;2022-10-31T08:40:20;13.70;;;3.60;;
47635;SDS011;33364;50.766;15.338;2022-10-31T08:42:46;7.68;;;2.67;;
47635;SDS011;33364;50.766;15.338;2022-10-31T08:45:12;7.28;;;3.00;;
47635;SDS011;33364;50.766;15.338;2022-10-31T08:47:38;6.20;;;2.80;;
47635;SDS011;33364;50.766;15.338;2022-10-31T08:50:03;10.05;;;3.40;;
47635;SDS011;33364;50.766;15.338;2022-10-31T08:52:29;4.80;;;2.58;;
47635;SDS011;33364;50.766;15.338;2022-10-31T08:54:55;20.85;;;3.20;;
47635;SDS011;33364;50.766;15.338;2022-10-31T08:57:20;5.60;;;2.78;;
47635;SDS011;33364;50.766;15.338;2022-10-31T08:59:46;4.95;;;2.75;;
47635;SDS011;33364;50.766;15.338;2022-10-31T09:02:12;9.13;;;2.53;;
47635;SDS011;33364;50.766;15.338;2022-10-31T09:04:37;7.40;;;3.05;;
47635;SDS011;33364;50.766;15.338;2022-10-31T09:07:03;5.45;;;2.85;;
47635;SDS011;33364;50.766;15.338;2022-10-31T09:09:28;6.03;;;2.88;;
47635;SDS011;33364;50.766;15.338;2022-10-31T09:11:54;7.65;;;2.75;;
47635;SDS011;33364;50.766;15.338;2022-10-31T09:14:19;10.88;;;2.92;;
47635;SDS011;33364;50.766;15.338;2022-10-31T09:16:45;13.50;;;3.70;;
47635;SDS011;33364;50.766;15.338;2022-10-31T09:19:10;82.35;;;31.30;;
47635;SDS011;33364;50.766;15.338;2022-10-31T09:21:36;56.33;;;22.02;;
47635;SDS011;33364;50.766;15.338;2022-10-31T09:24:01;11.40;;;4.72;;
47635;SDS011;33364;50.766;15.338;2022-10-31T09:26:27;17.10;;;4.72;;
47635;SDS011;33364;50.766;15.338;2022-10-31T09:28:53;7.57;;;3.08;;
47635;SDS011;33364;50.766;15.338;2022-10-31T09:31:18;8.35;;;3.03;;
47635;SDS011;33364;50.766;15.338;2022-10-31T09:33:44;6.20;;;2.65;;
47635;SDS011;33364;50.766;15.338;2022-10-31T09:36:09;15.82;;;2.97;;
47635;SDS011;33364;50.766;15.338;2022-10-31T09:38:35;7.90;;;2.67;;
47635;SDS011;33364;50.766;15.338;2022-10-31T09:41:17;9.77;;;2.70;;
47635;SDS011;33364;50.766;15.338;2022-10-31T09:49:21;7.70;;;2.42;;
47635;SDS011;33364;50.766;15.338;2022-10-31T09:51:54;6.90;;;2.30;;
47635;SDS011;33364;50.766;15.338;2022-10-31T09:54:46;12.57;;;2.72;;
47635;SDS011;33364;50.766;15.338;2022-10-31T09:57:17;8.43;;;2.85;;
47635;SDS011;33364;50.766;15.338;2022-10-31T09:59:49;10.68;;;4.65;;
47635;SDS011;33364;50.766;15.338;2022-10-31T10:05:24;7.95;;;2.63;;
47635;SDS011;33364;50.766;15.338;2022-10-31T10:08:16;9.68;;;3.33;;
47635;SDS011;33364;50.766;15.338;2022-10-31T10:16:03;12.75;;;3.97;;
47635;SDS011;33364;50.766;15.338;2022-10-31T10:30:15;7.75;;;3.78;;
47635;SDS011;33364;50.766;15.338;2022-10-31T10:32:44;8.32;;;3.55;;
47635;SDS011;33364;50.766;15.338;2022-10-31T10:40:53;11.38;;;3.70;;
47635;SDS011;33364;50.766;15.338;2022-10-31T10:43:36;13.10;;;5.80;;
47635;SDS011;33364;50.766;15.338;2022-10-31T10:49:33;12.68;;;4.22;;
47635;SDS011;33364;50.766;15.338;2022-10-31T10:54:39;9.82;;;4.25;;
47635;SDS011;33364;50.766;15.338;2022-10-31T10:57:18;8.57;;;3.85;;
47635;SDS011;33364;50.766;15.338;2022-10-31T10:59:48;13.43;;;4.10;;
47635;SDS011;33364;50.766;15.338;2022-10-31T11:02:24;21.70;;;4.63;;
47635;SDS011;33364;50.766;15.338;2022-10-31T11:04:56;9.35;;;3.92;;
47635;SDS011;33364;50.766;15.338;2022-10-31T11:07:24;13.25;;;3.80;;
47635;SDS011;33364;50.766;15.338;2022-10-31T11:09:50;8.88;;;3.83;;
47635;SDS011;33364;50.766;15.338;2022-10-31T11:14:52;16.10;;;5.22;;
47635;SDS011;33364;50.766;15.338;2022-10-31T11:22:42;14.35;;;4.53;;
47635;SDS011;33364;50.766;15.338;2022-10-31T11:27:44;14.57;;;6.20;;
47635;SDS011;33364;50.766;15.338;2022-10-31T11:30:11;13.73;;;4.90;;
47635;SDS011;33364;50.766;15.338;2022-10-31T11:32:42;10.05;;;4.22;;
47635;SDS011;33364;50.766;15.338;2022-10-31T11:35:13;11.30;;;4.85;;
47635;SDS011;33364;50.766;15.338;2022-10-31T11:40:29;10.57;;;4.22;;
47635;SDS011;33364;50.766;15.338;2022-10-31T11:42:55;11.60;;;4.63;;
47635;SDS011;33364;50.766;15.338;2022-10-31T11:47:59;8.85;;;5.38;;
47635;SDS011;33364;50.766;15.338;2022-10-31T11:50:38;11.32;;;4.90;;
47635;SDS011;33364;50.766;15.338;2022-10-31T11:53:12;10.73;;;4.30;;
47635;SDS011;33364;50.766;15.338;2022-10-31T11:55:42;11.43;;;4.75;;
47635;SDS011;33364;50.766;15.338;2022-10-31T11:58:20;15.25;;;4.65;;
47635;SDS011;33364;50.766;15.338;2022-10-31T12:00:54;15.02;;;6.95;;
47635;SDS011;33364;50.766;15.338;2022-10-31T12:06:16;12.85;;;4.18;;
47635;SDS011;33364;50.766;15.338;2022-10-31T12:08:46;12.00;;;3.95;;
47635;SDS011;33364;50.766;15.338;2022-10-31T12:14:15;14.57;;;4.38;;
47635;SDS011;33364;50.766;15.338;2022-10-31T12:19:42;18.67;;;6.28;;
47635;SDS011;33364;50.766;15.338;2022-10-31T12:22:46;9.52;;;3.72;;
47635;SDS011;33364;50.766;15.338;2022-10-31T12:25:26;9.40;;;4.22;;
47635;SDS011;33364;50.766;15.338;2022-10-31T12:30:58;11.18;;;4.25;;
47635;SDS011;33364;50.766;15.338;2022-10-31T12:33:43;7.90;;;4.35;;
47635;SDS011;33364;50.766;15.338;2022-10-31T12:44:29;10.32;;;5.60;;
47635;SDS011;33364;50.766;15.338;2022-10-31T12:55:08;11.65;;;5.20;;
47635;SDS011;33364;50.766;15.338;2022-10-31T12:57:38;15.02;;;6.50;;
47635;SDS011;33364;50.766;15.338;2022-10-31T13:00:14;17.20;;;7.78;;
47635;SDS011;33364;50.766;15.338;2022-10-31T13:02:44;15.25;;;6.63;;
47635;SDS011;33364;50.766;15.338;2022-10-31T13:05:29;19.77;;;9.90;;
47635;SDS011;33364;50.766;15.338;2022-10-31T13:08:09;16.02;;;5.22;;
47635;SDS011;33364;50.766;15.338;2022-10-31T13:10:36;25.45;;;8.57;;
47635;SDS011;33364;50.766;15.338;2022-10-31T13:13:31;13.98;;;4.78;;
47635;SDS011;33364;50.766;15.338;2022-10-31T13:16:21;10.27;;;4.90;;
47635;SDS011;33364;50.766;15.338;2022-10-31T13:18:50;8.15;;;4.53;;
47635;SDS011;33364;50.766;15.338;2022-10-31T13:21:47;11.40;;;5.35;;
47635;SDS011;33364;50.766;15.338;2022-10-31T13:24:18;12.98;;;4.93;;
47635;SDS011;33364;50.766;15.338;2022-10-31T13:29:23;24.77;;;11.93;;
47635;SDS011;33364;50.766;15.338;2022-10-31T13:31:53;38.20;;;14.40;;
47635;SDS011;33364;50.766;15.338;2022-10-31T13:34:26;13.43;;;5.90;;
47635;SDS011;33364;50.766;15.338;2022-10-31T13:37:04;15.98;;;5.22;;
47635;SDS011;33364;50.766;15.338;2022-10-31T13:39:51;17.42;;;5.80;;
47635;SDS011;33364;50.766;15.338;2022-10-31T13:45:22;18.15;;;8.43;;
47635;SDS011;33364;50.766;15.338;2022-10-31T13:47:59;14.57;;;4.72;;
47635;SDS011;33364;50.766;15.338;2022-10-31T13:50:28;14.00;;;7.10;;
47635;SDS011;33364;50.766;15.338;2022-10-31T13:53:11;29.88;;;12.82;;
47635;SDS011;33364;50.766;15.338;2022-10-31T13:56:02;14.63;;;6.70;;
47635;SDS011;33364;50.766;15.338;2022-10-31T13:58:36;13.60;;;6.18;;
47635;SDS011;33364;50.766;15.338;2022-10-31T14:03:47;19.50;;;6.17;;
47635;SDS011;33364;50.766;15.338;2022-10-31T14:06:33;14.43;;;6.53;;
47635;SDS011;33364;50.766;15.338;2022-10-31T14:09:02;13.95;;;5.10;;
47635;SDS011;33364;50.766;15.338;2022-10-31T14:11:28;12.52;;;5.03;;
47635;SDS011;33364;50.766;15.338;2022-10-31T14:13:55;15.38;;;5.32;;
47635;SDS011;33364;50.766;15.338;2022-10-31T14:16:27;13.88;;;5.75;;
47635;SDS011;33364;50.766;15.338;2022-10-31T14:18:59;18.48;;;6.22;;
47635;SDS011;33364;50.766;15.338;2022-10-31T14:21:39;22.15;;;7.70;;
47635;SDS011;33364;50.766;15.338;2022-10-31T14:24:14;22.08;;;7.57;;
47635;SDS011;33364;50.766;15.338;2022-10-31T14:26:50;32.40;;;12.27;;
47635;SDS011;33364;50.766;15.338;2022-10-31T14:39:49;39.45;;;15.27;;
47635;SDS011;33364;50.766;15.338;2022-10-31T14:43:22;30.40;;;13.02;;
47635;SDS011;33364;50.766;15.338;2022-10-31T14:48:03;14.50;;;5.60;;
47635;SDS011;33364;50.766;15.338;2022-10-31T14:53:08;8.68;;;5.10;;
47635;SDS011;33364;50.766;15.338;2022-10-31T14:55:44;12.77;;;5.25;;
47635;SDS011;33364;50.766;15.338;2022-10-31T14:58:16;11.52;;;5.07;;
47635;SDS011;33364;50.766;15.338;2022-10-31T15:00:45;12.32;;;6.28;;
47635;SDS011;33364;50.766;15.338;2022-10-31T15:03:12;14.65;;;5.80;;
47635;SDS011;33364;50.766;15.338;2022-10-31T15:05:42;11.05;;;5.35;;
47635;SDS011;33364;50.766;15.338;2022-10-31T15:08:32;15.32;;;5.95;;
47635;SDS011;33364;50.766;15.338;2022-10-31T15:10:58;16.42;;;5.65;;
47635;SDS011;33364;50.766;15.338;2022-10-31T15:13:23;14.15;;;5.25;;
47635;SDS011;33364;50.766;15.338;2022-10-31T15:15:49;19.05;;;6.05;;
47635;SDS011;33364;50.766;15.338;2022-10-31T15:18:23;18.05;;;5.95;;
47635;SDS011;33364;50.766;15.338;2022-10-31T15:20:51;16.00;;;5.80;;
47635;SDS011;33364;50.766;15.338;2022-10-31T15:23:23;19.20;;;8.13;;
47635;SDS011;33364;50.766;15.338;2022-10-31T15:26:02;21.00;;;8.60;;
47635;SDS011;33364;50.766;15.338;2022-10-31T15:28:29;29.25;;;7.70;;
47635;SDS011;33364;50.766;15.338;2022-10-31T15:31:00;18.02;;;8.75;;
47635;SDS011;33364;50.766;15.338;2022-10-31T15:33:28;16.48;;;7.22;;
47635;SDS011;33364;50.766;15.338;2022-10-31T15:36:00;19.95;;;8.20;;
47635;SDS011;33364;50.766;15.338;2022-10-31T15:38:27;17.67;;;7.95;;
47635;SDS011;33364;50.766;15.338;2022-10-31T15:40:55;18.10;;;8.43;;
47635;SDS011;33364;50.766;15.338;2022-10-31T15:43:24;16.73;;;7.75;;
47635;SDS011;33364;50.766;15.338;2022-10-31T15:45:50;21.45;;;7.88;;
47635;SDS011;33364;50.766;15.338;2022-10-31T15:48:17;19.52;;;8.40;;
47635;SDS011;33364;50.766;15.338;2022-10-31T15:50:48;19.52;;;9.35;;
47635;SDS011;33364;50.766;15.338;2022-10-31T15:53:21;24.75;;;10.70;;
47635;SDS011;33364;50.766;15.338;2022-10-31T15:55:59;25.45;;;17.35;;
47635;SDS011;33364;50.766;15.338;2022-10-31T15:58:32;26.65;;;17.52;;
47635;SDS011;33364;50.766;15.338;2022-10-31T16:01:02;23.58;;;13.50;;
47635;SDS011;33364;50.766;15.338;2022-10-31T16:03:30;22.48;;;12.95;;
47635;SDS011;33364;50.766;15.338;2022-10-31T16:05:57;37.67;;;20.10;;
47635;SDS011;33364;50.766;15.338;2022-10-31T16:10:53;24.10;;;14.20;;
47635;SDS011;33364;50.766;15.338;2022-10-31T16:13:26;26.17;;;15.88;;
47635;SDS011;33364;50.766;15.338;2022-10-31T16:15:58;25.63;;;14.93;;
47635;SDS011;33364;50.766;15.338;2022-10-31T16:18:26;19.90;;;12.07;;
47635;SDS011;33364;50.766;15.338;2022-10-31T16:20:55;20.45;;;11.45;;
47635;SDS011;33364;50.766;15.338;2022-10-31T16:23:22;18.15;;;9.23;;
47635;SDS011;33364;50.766;15.338;2022-10-31T16:25:51;23.80;;;10.82;;
47635;SDS011;33364;50.766;15.338;2022-10-31T16:30:45;38.40;;;15.90;;
47635;SDS011;33364;50.766;15.338;2022-10-31T16:35:51;16.25;;;10.95;;
47635;SDS011;33364;50.766;15.338;2022-10-31T16:38:18;24.92;;;9.45;;
47635;SDS011;33364;50.766;15.338;2022-10-31T16:40:43;20.50;;;11.82;;
47635;SDS011;33364;50.766;15.338;2022-10-31T16:43:13;20.58;;;10.10;;
47635;SDS011;33364;50.766;15.338;2022-10-31T16:45:43;18.15;;;10.07;;
47635;SDS011;33364;50.766;15.338;2022-10-31T16:48:11;24.55;;;14.10;;
47635;SDS011;33364;50.766;15.338;2022-10-31T16:50:40;28.90;;;15.93;;
47635;SDS011;33364;50.766;15.338;2022-10-31T16:53:07;27.45;;;14.32;;
47635;SDS011;33364;50.766;15.338;2022-10-31T16:55:33;27.15;;;13.05;;
47635;SDS011;33364;50.766;15.338;2022-10-31T16:58:06;22.38;;;11.13;;